Página principal
METAR-TAF:

METAR-TAF

Aeroportos :

Chiang Mai, Tailândia

latitude: 18-47N, longitude: 098-59E, altura: 312 m

Observação actual do tempo

O boletim foi feito há 38 minutos, às 04:30 UTC
Vento 3 kt com direcção variável
Temperatura 28°C
Humidade 40%
Pressão 1017 hPa
Visibilidade 10 km ou mais
sem nuvens abaixo de 1500 metros e sem cumulonimbus

METAR: VTCC 230430Z VRB03KT CAVOK 28/13 Q1017 NOSIG

Hora: 12:08 (05:08 UTC)

Previsão

O boletim foi feito há 6 horas e 8 minutos, às 23:00 UTC
Previsão válida de 23 às 00 UTC a 24 às 06 UTC
Vento 5 kt de sudoeste
Visibilidade 10 km ou mais
Poucas nuvensa uma altura de 3500 ft

TAF: VTCC 222300Z 2300/2406 22005KT 9999 FEW035

Observações e previsões do tempo de mais de 4000 aeroportos (mensagens METAR e TAF).

As estações disponíveis são os pontos amarelos e vermelhos sobre o mapa.

Mova o rato sobre o mapa para ver o nome da estação.

Depois clique no ponto para visualizar as observações e previsões meteorológicas.

Para alterar o mapa : clique nos botões verdes com uma cruz preta para aumentar o zoom; no botão verde com uma pitada de zoom; ou nas setas verdes para mapas adjacentes.


METAR-TAF: